Time;durP1;ratioP1;P1;durP2;ratioP2;P2;SDS_P1;SDS_P2;PMS_P1;PMS_P2;Temp;Humidity;BMP_temperature;BMP_pressure;BME280_temperature;BME280_humidity;BME280_pressure;Samples;Min_cycle;Max_cycle;Signal;HPM_P1;HPM_P2
2023/01/29 00:00:28;;;;;;;14.40;8.53;;;;;;;-5.30;100.00;97572.09;10489362;28;20230;-64
2023/01/29 00:05:28;;;;;;;14.53;8.63;;;;;;;-5.25;100.00;97574.56;10489279;28;20293;-64
2023/01/29 00:10:28;;;;;;;16.50;8.53;;;;;;;-5.14;100.00;97557.25;10489265;28;20265;-63
2023/01/29 00:15:29;;;;;;;14.50;8.70;;;;;;;-5.17;100.00;97557.31;10488957;28;20286;-64
2023/01/29 00:20:30;;;;;;;19.00;8.97;;;;;;;-5.18;100.00;97552.25;10472077;28;20227;-63
2023/01/29 00:25:30;;;;;;;15.23;8.30;;;;;;;-5.18;100.00;97550.53;10453969;28;20233;-64
2023/01/29 00:30:30;;;;;;;15.07;8.83;;;;;;;-5.35;100.00;97539.91;10455271;28;20199;-64
2023/01/29 00:35:31;;;;;;;12.63;7.63;;;;;;;-5.35;100.00;97533.09;10454726;28;20311;-64
2023/01/29 00:44:56;;;;;;;14.23;7.90;;;;;;;-5.29;100.00;97530.38;10448598;23;20243;-63
2023/01/29 00:45:52;;;;;;;12.63;7.67;;;;;;;-5.37;100.00;97529.75;10413696;28;20279;-62
2023/01/29 00:50:52;;;;;;;11.03;6.97;;;;;;;-5.27;100.00;97515.88;10366475;28;20744;-58
2023/01/29 00:55:52;;;;;;;11.80;7.20;;;;;;;-5.15;100.00;97499.38;10372050;28;20193;-61
2023/01/29 01:00:54;;;;;;;14.17;8.57;;;;;;;-5.31;100.00;97510.84;10371916;28;20221;-61
2023/01/29 01:06:05;;;;;;;13.43;8.30;;;;;;;-5.25;100.00;97498.78;10354065;28;20200;-62
2023/01/29 01:11:05;;;;;;;12.93;8.07;;;;;;;-5.32;100.00;97504.91;10369751;28;20588;-64
2023/01/29 01:16:13;;;;;;;13.87;8.07;;;;;;;-5.36;100.00;97521.19;10412248;28;20287;-63
2023/01/29 01:21:13;;;;;;;12.33;7.83;;;;;;;-5.35;100.00;97530.53;10411801;28;20577;-63
2023/01/29 01:26:13;;;;;;;14.33;8.20;;;;;;;-5.44;100.00;97523.94;10411264;28;20199;-63
2023/01/29 01:31:14;;;;;;;14.63;9.17;;;;;;;-5.28;100.00;97529.50;10411875;28;20203;-65
2023/01/29 01:36:15;;;;;;;17.33;8.87;;;;;;;-5.18;100.00;97524.16;10410450;28;20204;-63
2023/01/29 01:41:19;;;;;;;16.40;9.37;;;;;;;-5.46;100.00;97519.75;10410921;28;20810;-62
2023/01/29 01:46:20;;;;;;;16.07;9.47;;;;;;;-5.32;100.00;97515.13;10411003;28;20188;-61
2023/01/29 01:51:23;;;;;;;18.37;8.93;;;;;;;-5.30;100.00;97510.81;10409313;28;20205;-61
2023/01/29 01:56:27;;;;;;;17.83;9.57;;;;;;;-5.46;100.00;97509.53;10393340;28;20278;-63
2023/01/29 02:01:27;;;;;;;18.87;9.87;;;;;;;-5.45;100.00;97506.09;10392000;28;20234;-60
2023/01/29 02:11:48;;;;;;;18.33;9.80;;;;;;;-5.67;100.00;97496.41;10410574;28;20204;-61
2023/01/29 02:16:49;;;;;;;15.37;9.77;;;;;;;-5.60;100.00;97508.16;10392398;28;20251;-61
2023/01/29 02:21:55;;;;;;;15.10;9.83;;;;;;;-5.55;100.00;97492.72;10409928;28;20266;-61
2023/01/29 02:27:16;;;;;;;17.43;10.23;;;;;;;-5.56;100.00;97496.16;10409098;28;20196;-61
2023/01/29 02:32:40;;;;;;;13.20;9.03;;;;;;;-5.54;100.00;97496.97;10408483;28;20235;-61
2023/01/29 02:37:52;;;;;;;16.47;9.27;;;;;;;-5.62;100.00;97488.66;10407500;28;20215;-62
2023/01/29 02:43:01;;;;;;;17.07;10.30;;;;;;;-5.76;100.00;97478.78;10391046;28;20216;-61
2023/01/29 02:48:02;;;;;;;15.67;10.27;;;;;;;-5.69;100.00;97482.03;10390933;28;20228;-62
2023/01/29 02:53:07;;;;;;;15.77;10.20;;;;;;;-5.62;100.00;97466.53;10408706;28;20727;-63
2023/01/29 02:58:24;;;;;;;18.00;10.87;;;;;;;-5.85;100.00;97469.66;10407057;28;20199;-63
2023/01/29 03:03:29;;;;;;;19.03;10.77;;;;;;;-5.96;100.00;97476.69;10408407;28;20715;-66
2023/01/29 03:08:41;;;;;;;19.60;11.03;;;;;;;-5.98;100.00;97479.31;10390207;28;20230;-64
2023/01/29 03:14:22;;;;;;;19.27;11.47;;;;;;;-6.04;100.00;97471.81;10390881;28;20177;-64
2023/01/29 03:19:33;;;;;;;19.67;12.43;;;;;;;-5.91;100.00;97488.47;10407870;28;20614;-65
2023/01/29 03:35:38;;;;;;;17.37;10.77;;;;;;;-6.00;100.00;97510.81;10392371;28;20198;-63
2023/01/29 03:40:53;;;;;;;21.43;11.70;;;;;;;-6.06;100.00;97493.13;10405145;28;20326;-64
2023/01/29 03:46:02;;;;;;;19.63;11.73;;;;;;;-6.37;100.00;97504.00;10406479;28;20278;-63
2023/01/29 03:51:24;;;;;;;19.57;12.43;;;;;;;-6.46;100.00;97507.59;10405979;28;20698;-64
2023/01/29 03:56:35;;;;;;;21.17;13.10;;;;;;;-6.50;100.00;97504.25;10389825;28;20203;-63
2023/01/29 04:01:40;;;;;;;28.50;15.30;;;;;;;-6.63;100.00;97493.50;10397494;28;20226;-63
2023/01/29 04:06:43;;;;;;;24.17;14.23;;;;;;;-6.55;100.00;97490.78;10398010;28;20197;-63
2023/01/29 04:11:47;;;;;;;22.93;13.30;;;;;;;-6.71;100.00;97497.88;10396973;28;20213;-65
2023/01/29 04:16:52;;;;;;;27.33;14.87;;;;;;;-6.79;100.00;97493.84;10396766;28;20573;-63
2023/01/29 04:22:02;;;;;;;24.43;14.70;;;;;;;-6.86;100.00;97481.22;10396753;28;20229;-63
2023/01/29 04:27:25;;;;;;;23.40;14.63;;;;;;;-6.87;100.00;97477.00;10379536;28;20194;-63
2023/01/29 04:32:46;;;;;;;27.57;17.37;;;;;;;-6.85;100.00;97461.69;10380315;28;20184;-62
2023/01/29 04:38:15;;;;;;;27.93;15.57;;;;;;;-6.86;100.00;97449.81;10395911;28;20237;-63
2023/01/29 04:43:28;;;;;;;23.57;14.37;;;;;;;-6.92;100.00;97450.78;10413476;28;20235;-63
2023/01/29 04:48:36;;;;;;;27.60;15.43;;;;;;;-6.87;100.00;97437.97;10395574;28;20683;-65
2023/01/29 04:53:47;;;;;;;25.53;16.57;;;;;;;-6.88;100.00;97426.91;10413525;28;20281;-64
2023/01/29 04:58:55;;;;;;;18.77;9.23;;;;;;;-6.83;100.00;97420.03;10395275;28;20313;-62
2023/01/29 05:03:56;;;;;;;24.77;14.30;;;;;;;-6.88;100.00;97410.78;10394980;28;20422;-63
2023/01/29 05:08:56;;;;;;;19.10;12.97;;;;;;;-7.00;100.00;97397.47;10412426;28;20227;-63
2023/01/29 05:13:58;;;;;;;19.83;12.37;;;;;;;-7.05;100.00;97398.41;10394749;28;20280;-62
2023/01/29 05:18:58;;;;;;;22.60;11.83;;;;;;;-7.03;100.00;97399.22;10394650;28;20674;-63
2023/01/29 05:24:25;;;;;;;22.13;13.00;;;;;;;-7.03;100.00;97391.56;10412080;28;20316;-65
2023/01/29 05:29:25;;;;;;;24.87;13.40;;;;;;;-7.07;100.00;97385.72;10408561;28;20290;-65
2023/01/29 05:34:26;;;;;;;21.97;12.40;;;;;;;-7.20;100.00;97390.22;10411952;28;20613;-63
2023/01/29 05:39:26;;;;;;;22.97;13.27;;;;;;;-7.23;100.00;97382.66;10410950;28;20315;-62
2023/01/29 05:44:26;;;;;;;25.57;14.77;;;;;;;-7.28;100.00;97381.91;10411096;28;20317;-60
2023/01/29 05:49:27;;;;;;;23.27;13.67;;;;;;;-7.24;100.00;97391.16;10411145;28;20232;-65
2023/01/29 05:54:28;;;;;;;18.37;11.33;;;;;;;-7.25;100.00;97381.84;10411223;28;20190;-65
2023/01/29 05:59:30;;;;;;;18.17;9.77;;;;;;;-7.31;100.00;97389.59;10410617;28;20891;-63
2023/01/29 06:04:30;;;;;;;23.00;13.40;;;;;;;-7.22;100.00;97394.50;10410469;28;20635;-65
2023/01/29 06:09:30;;;;;;;19.50;11.77;;;;;;;-7.29;100.00;97385.28;10410157;28;20307;-64
2023/01/29 06:14:31;;;;;;;11.93;7.37;;;;;;;-7.26;100.00;97384.41;10410218;28;20188;-64
2023/01/29 06:19:31;;;;;;;21.93;11.47;;;;;;;-7.28;100.00;97407.34;10409564;28;20212;-65
2023/01/29 06:24:32;;;;;;;23.17;13.13;;;;;;;-7.46;100.00;97388.16;10409511;28;20312;-64
2023/01/29 06:29:32;;;;;;;47.63;23.10;;;;;;;-7.49;100.00;97389.94;10409602;28;20263;-63
2023/01/29 06:34:32;;;;;;;31.50;18.93;;;;;;;-7.38;100.00;97421.09;10391740;28;20214;-63
2023/01/29 06:39:33;;;;;;;38.47;20.17;;;;;;;-7.20;100.00;97445.38;10408845;28;20325;-62
2023/01/29 06:44:33;;;;;;;17.70;10.63;;;;;;;-7.05;100.00;97455.25;10402468;23;20245;-66
2023/01/29 06:49:34;;;;;;;30.30;17.13;;;;;;;-7.03;100.00;97461.19;10370865;28;20185;-64
2023/01/29 06:54:34;;;;;;;31.13;17.47;;;;;;;-6.87;100.00;97458.34;10370633;28;20215;-65
2023/01/29 06:59:34;;;;;;;30.77;13.97;;;;;;;-6.78;100.00;97460.69;10370575;28;20268;-64
2023/01/29 07:04:36;;;;;;;24.53;14.67;;;;;;;-6.73;100.00;97475.88;10370300;28;20225;-65
2023/01/29 07:09:36;;;;;;;23.87;13.30;;;;;;;-6.56;100.00;97481.44;10370237;28;20200;-64
2023/01/29 07:14:37;;;;;;;20.07;12.53;;;;;;;-6.39;100.00;97485.34;10370134;28;20206;-65
2023/01/29 07:19:37;;;;;;;17.40;9.73;;;;;;;-6.33;100.00;97488.59;10370028;28;20296;-63
2023/01/29 07:24:38;;;;;;;23.90;13.57;;;;;;;-6.19;100.00;97490.03;10369882;28;20316;-63
2023/01/29 07:29:38;;;;;;;30.87;18.17;;;;;;;-6.31;100.00;97503.88;10369822;28;20199;-64
2023/01/29 07:34:38;;;;;;;21.30;11.93;;;;;;;-6.20;100.00;97503.63;10375119;28;20212;-63
2023/01/29 07:39:39;;;;;;;21.87;14.07;;;;;;;-6.08;100.00;97510.19;10378165;28;20699;-64
2023/01/29 07:44:39;;;;;;;21.07;15.47;;;;;;;-6.06;100.00;97496.53;10377484;28;20720;-64
2023/01/29 07:49:39;;;;;;;16.50;9.80;;;;;;;-5.88;100.00;97492.69;10377305;28;20812;-64
2023/01/29 07:54:40;;;;;;;17.20;11.50;;;;;;;-5.86;100.00;97493.47;10377376;28;20694;-64
2023/01/29 07:59:40;;;;;;;16.27;8.63;;;;;;;-5.62;100.00;97486.94;10377391;28;20744;-64
2023/01/29 08:04:40;;;;;;;8.53;5.97;;;;;;;-5.55;100.00;97477.41;10371734;28;20767;-63
2023/01/29 08:09:41;;;;;;;19.27;11.77;;;;;;;-5.54;100.00;97468.88;10340065;28;20707;-63
2023/01/29 08:14:41;;;;;;;21.50;12.37;;;;;;;-5.40;100.00;97473.66;10366294;28;20212;-64
2023/01/29 08:19:41;;;;;;;16.63;10.30;;;;;;;-5.16;100.00;97453.44;10338926;28;20773;-64
2023/01/29 08:24:42;;;;;;;11.27;8.67;;;;;;;-5.06;100.00;97437.81;10338387;28;20701;-65
2023/01/29 08:29:42;;;;;;;11.03;6.73;;;;;;;-5.02;100.00;97449.63;10335842;28;20662;-65
2023/01/29 08:34:42;;;;;;;19.60;10.97;;;;;;;-4.98;100.00;97431.66;10335292;28;20214;-65
2023/01/29 08:39:43;;;;;;;13.90;8.70;;;;;;;-4.76;100.00;97427.63;10335361;28;20352;-64
2023/01/29 08:44:43;;;;;;;18.17;11.13;;;;;;;-4.62;100.00;97426.34;10334170;28;20238;-64
2023/01/29 08:49:44;;;;;;;17.83;10.30;;;;;;;-4.71;100.00;97420.63;10335006;28;20269;-64
2023/01/29 08:54:44;;;;;;;17.67;12.00;;;;;;;-4.63;100.00;97424.69;10334681;28;20221;-64
2023/01/29 08:59:44;;;;;;;14.37;10.83;;;;;;;-4.60;100.00;97432.28;10340386;28;20208;-66
2023/01/29 09:04:45;;;;;;;11.47;7.27;;;;;;;-4.27;100.00;97439.81;10334248;28;20332;-62
2023/01/29 09:09:45;;;;;;;11.60;7.27;;;;;;;-4.21;100.00;97442.19;10333984;28;20190;-66
2023/01/29 09:14:45;;;;;;;13.37;8.83;;;;;;;-4.32;100.00;97435.69;10333917;28;20649;-64
2023/01/29 09:19:46;;;;;;;13.50;9.30;;;;;;;-4.25;100.00;97412.47;10333566;28;20604;-64
2023/01/29 09:24:46;;;;;;;14.67;9.93;;;;;;;-4.23;100.00;97401.28;10332706;28;20573;-62
2023/01/29 09:29:46;;;;;;;13.47;9.00;;;;;;;-3.99;100.00;97406.53;10333217;28;20737;-64
2023/01/29 09:34:47;;;;;;;15.83;10.17;;;;;;;-3.83;100.00;97415.38;10332860;28;20694;-65
2023/01/29 09:39:48;;;;;;;16.80;10.87;;;;;;;-3.87;100.00;97395.06;10332959;28;20675;-64
2023/01/29 09:45:02;;;;;;;15.33;10.33;;;;;;;-3.95;100.00;97385.91;10332374;28;20619;-64
2023/01/29 09:50:12;;;;;;;14.50;9.17;;;;;;;-3.85;100.00;97417.13;10333101;28;20190;-64
2023/01/29 09:55:25;;;;;;;14.27;9.40;;;;;;;-3.78;100.00;97399.88;10314660;28;20210;-64
2023/01/29 10:00:43;;;;;;;15.87;9.67;;;;;;;-3.73;100.00;97404.84;10332161;28;20284;-62
2023/01/29 10:05:59;;;;;;;19.93;10.07;;;;;;;-3.65;100.00;97385.75;10315229;28;20217;-64
2023/01/29 10:11:28;;;;;;;17.67;9.57;;;;;;;-3.28;100.00;97365.72;10315090;28;20598;-65
2023/01/29 10:16:50;;;;;;;11.17;6.03;;;;;;;-3.40;100.00;97349.03;10331933;28;20201;-62
2023/01/29 10:22:12;;;;;;;15.87;11.73;;;;;;;-3.44;100.00;97339.81;10331703;28;20231;-63
2023/01/29 10:27:14;;;;;;;16.03;10.43;;;;;;;-3.10;100.00;97339.41;10331749;28;20740;-64
2023/01/29 10:32:17;;;;;;;17.00;10.90;;;;;;;-3.12;100.00;97343.78;10313992;28;20202;-63
2023/01/29 10:37:33;;;;;;;15.07;10.17;;;;;;;-2.88;100.00;97354.00;10330240;28;20202;-63
2023/01/29 10:42:45;;;;;;;15.33;10.70;;;;;;;-2.99;100.00;97336.44;10313803;28;20244;-63
2023/01/29 10:48:03;;;;;;;14.60;10.37;;;;;;;-2.70;100.00;97342.22;10313920;28;20186;-63
2023/01/29 10:53:40;;;;;;;17.87;10.10;;;;;;;-2.58;100.00;97334.03;10314210;28;20201;-63
2023/01/29 10:58:46;;;;;;;13.70;9.90;;;;;;;-2.40;100.00;97339.34;10330427;28;20244;-63
2023/01/29 11:03:55;;;;;;;14.03;9.70;;;;;;;-2.50;100.00;97315.78;10323074;28;20241;-63
2023/01/29 11:09:21;;;;;;;12.87;9.60;;;;;;;-2.70;100.00;97307.13;10272779;28;20198;-63
2023/01/29 11:14:27;;;;;;;16.23;11.13;;;;;;;-2.60;100.00;97309.38;10289705;28;20253;-62
2023/01/29 11:19:37;;;;;;;14.93;10.03;;;;;;;-2.43;100.00;97280.47;10291331;28;20192;-63
2023/01/29 11:24:37;;;;;;;52.80;23.27;;;;;;;-2.56;100.00;97273.28;10291006;28;20226;-63
2023/01/29 11:29:40;;;;;;;56.63;27.40;;;;;;;-2.26;100.00;97272.09;10289256;28;20277;-63
2023/01/29 11:34:59;;;;;;;26.80;13.43;;;;;;;-2.28;100.00;97254.19;10289413;28;20202;-64
2023/01/29 11:40:00;;;;;;;26.10;13.77;;;;;;;-2.47;100.00;97248.13;10288663;28;20198;-63
2023/01/29 11:45:00;;;;;;;47.37;30.90;;;;;;;-2.35;100.00;97238.19;10288822;28;20269;-64
2023/01/29 11:50:01;;;;;;;17.83;11.53;;;;;;;-2.03;100.00;97224.91;10271252;28;20193;-64
2023/01/29 11:55:14;;;;;;;14.47;8.57;;;;;;;-1.92;100.00;97220.13;10288848;28;20281;-64
2023/01/29 12:00:34;;;;;;;12.17;6.03;;;;;;;-1.69;100.00;97228.56;10288738;28;20262;-63
2023/01/29 12:05:34;;;;;;;10.57;6.20;;;;;;;-1.60;100.00;97215.31;10271622;28;20225;-63
2023/01/29 12:10:36;;;;;;;15.20;8.90;;;;;;;-1.87;100.00;97207.94;10288293;28;20216;-64
2023/01/29 12:15:37;;;;;;;11.63;8.50;;;;;;;-2.06;100.00;97207.06;10288263;28;20305;-65
2023/01/29 12:20:43;;;;;;;14.03;9.17;;;;;;;-1.79;100.00;97207.59;10276250;28;20190;-63
2023/01/29 12:25:46;;;;;;;11.73;7.93;;;;;;;-1.56;100.00;97193.72;10278185;28;20218;-61
2023/01/29 12:31:21;;;;;;;12.67;8.10;;;;;;;-1.76;100.00;97191.22;10278344;28;20194;-63
2023/01/29 12:36:26;;;;;;;17.03;10.80;;;;;;;-1.64;100.00;97178.66;10278052;28;20277;-62
2023/01/29 12:42:03;;;;;;;20.37;12.73;;;;;;;-1.61;100.00;97172.53;10294758;28;20222;-63
2023/01/29 12:47:05;;;;;;;14.97;8.57;;;;;;;-1.59;100.00;97168.19;10355959;23;20621;-66
2023/01/29 12:52:05;;;;;;;15.03;7.17;;;;;;;-1.65;100.00;97150.47;10317619;28;20190;-65
2023/01/29 12:57:33;;;;;;;16.50;10.53;;;;;;;-1.97;100.00;97143.31;10334621;28;20732;-64
2023/01/29 13:03:07;;;;;;;12.30;7.10;;;;;;;-1.97;100.00;97151.03;10317106;28;20481;-63
2023/01/29 13:08:13;;;;;;;16.07;9.10;;;;;;;-1.87;100.00;97153.16;10299529;28;20226;-64
2023/01/29 13:13:30;;;;;;;15.47;9.60;;;;;;;-1.80;100.00;97152.81;10316949;28;20562;-64
2023/01/29 13:18:39;;;;;;;21.90;12.83;;;;;;;-1.45;100.00;97152.13;10334120;28;20212;-66
2023/01/29 13:23:43;;;;;;;18.90;12.37;;;;;;;-1.29;100.00;97136.81;10333823;28;20229;-63
2023/01/29 13:28:44;;;;;;;12.57;9.40;;;;;;;-1.38;100.00;97116.69;10315624;28;20210;-64
2023/01/29 13:33:57;;;;;;;17.77;10.63;;;;;;;-1.40;100.00;97121.06;10331828;28;20210;-66
2023/01/29 13:39:03;;;;;;;13.30;9.90;;;;;;;-1.11;100.00;97120.50;10333101;28;20210;-66
2023/01/29 13:44:06;;;;;;;29.40;15.60;;;;;;;-1.56;100.00;97119.22;10332833;28;20237;-66
2023/01/29 13:49:25;;;;;;;16.30;10.63;;;;;;;-1.64;100.00;97124.72;10332910;28;20190;-66
2023/01/29 13:54:26;;;;;;;13.67;7.80;;;;;;;-1.78;100.00;97124.50;10332971;28;20213;-65
2023/01/29 13:59:49;;;;;;;17.23;10.67;;;;;;;-1.76;100.00;97121.88;10332231;28;20236;-66
2023/01/29 14:04:50;;;;;;;12.57;8.40;;;;;;;-1.98;100.00;97135.69;10332294;28;20228;-65
2023/01/29 14:10:13;;;;;;;15.30;9.40;;;;;;;-1.70;100.00;97132.72;10331829;28;20194;-66
2023/01/29 14:15:21;;;;;;;21.50;13.07;;;;;;;-1.68;100.00;97130.06;10331573;28;20595;-66
2023/01/29 14:20:38;;;;;;;13.63;8.20;;;;;;;-1.99;100.00;97119.44;10331430;28;20202;-63
2023/01/29 14:25:39;;;;;;;10.10;6.13;;;;;;;-2.15;100.00;97118.47;10330135;28;20218;-66
2023/01/29 14:30:46;;;;;;;11.07;6.97;;;;;;;-2.04;100.00;97129.06;10330970;28;20209;-66
2023/01/29 14:35:49;;;;;;;11.17;7.60;;;;;;;-2.32;100.00;97126.91;10314057;28;20245;-65
2023/01/29 14:40:49;;;;;;;14.37;7.53;;;;;;;-2.24;100.00;97126.56;10330188;28;20217;-66
2023/01/29 14:45:50;;;;;;;12.60;7.40;;;;;;;-2.25;100.00;97119.75;10330484;28;20245;-64
2023/01/29 14:50:52;;;;;;;10.53;6.90;;;;;;;-2.29;100.00;97111.38;10313398;28;20993;-64
2023/01/29 14:56:16;;;;;;;9.60;6.50;;;;;;;-2.49;100.00;97111.41;10312791;28;20210;-66
2023/01/29 15:01:21;;;;;;;6.80;4.10;;;;;;;-2.40;100.00;97124.69;10328804;28;20217;-63
2023/01/29 15:06:28;;;;;;;11.70;7.57;;;;;;;-2.40;100.00;97134.13;10328360;28;20202;-64
2023/01/29 15:11:47;;;;;;;19.30;11.97;;;;;;;-2.57;100.00;97142.53;10328850;28;20612;-66
2023/01/29 15:16:59;;;;;;;11.33;6.53;;;;;;;-2.40;100.00;97137.50;10329023;28;20216;-65
2023/01/29 15:22:14;;;;;;;11.23;6.83;;;;;;;-2.47;100.00;97137.84;10312342;28;20222;-65
2023/01/29 15:27:17;;;;;;;15.13;9.57;;;;;;;-2.70;100.00;97134.50;10329488;28;20245;-65
2023/01/29 15:32:28;;;;;;;14.03;8.73;;;;;;;-2.95;100.00;97129.56;10328253;28;20199;-63
2023/01/29 15:37:33;;;;;;;14.57;8.23;;;;;;;-2.96;100.00;97133.00;10312155;28;20241;-65
2023/01/29 15:42:47;;;;;;;13.47;7.37;;;;;;;-2.96;100.00;97127.88;10329270;28;20728;-63
2023/01/29 15:47:47;;;;;;;12.53;8.00;;;;;;;-3.24;100.00;97126.44;10328759;28;20242;-63
2023/01/29 15:52:50;;;;;;;11.87;7.00;;;;;;;-3.41;100.00;97135.63;10329883;28;20256;-66
2023/01/29 15:57:51;;;;;;;17.20;8.57;;;;;;;-3.38;100.00;97134.69;10336817;28;20254;-64
2023/01/29 16:02:51;;;;;;;44.23;21.13;;;;;;;-3.24;100.00;97136.69;10337013;28;20256;-63
2023/01/29 16:07:52;;;;;;;43.20;22.10;;;;;;;-3.13;100.00;97128.56;10336527;28;20268;-66
2023/01/29 16:12:53;;;;;;;20.87;11.40;;;;;;;-3.27;100.00;97118.88;10319114;28;20277;-63
2023/01/29 16:17:54;;;;;;;18.83;9.70;;;;;;;-3.31;100.00;97122.44;10336375;28;20348;-65
2023/01/29 16:22:54;;;;;;;40.37;16.93;;;;;;;-3.20;100.00;97120.31;10318643;28;20222;-65
2023/01/29 16:27:55;;;;;;;76.00;33.87;;;;;;;-3.15;100.00;97115.81;10335902;28;20294;-65
2023/01/29 16:33:06;;;;;;;62.70;25.80;;;;;;;-3.04;100.00;97105.13;10335776;28;20741;-65
2023/01/29 16:38:25;;;;;;;26.73;11.13;;;;;;;-2.95;100.00;97097.06;10335282;28;20212;-63
2023/01/29 16:43:46;;;;;;;11.90;7.23;;;;;;;-2.94;100.00;97095.31;10317727;28;20623;-63
2023/01/29 16:48:46;;;;;;;22.43;12.30;;;;;;;-3.08;100.00;97085.66;10317694;28;20205;-63
2023/01/29 16:53:58;;;;;;;37.43;17.20;;;;;;;-2.98;100.00;97074.13;10317698;28;20202;-64
2023/01/29 16:59:01;;;;;;;30.77;15.37;;;;;;;-2.90;100.00;97068.69;10334892;28;20673;-65
2023/01/29 17:04:16;;;;;;;53.77;17.83;;;;;;;-3.01;100.00;97060.63;10316693;28;20690;-65
2023/01/29 17:09:21;;;;;;;10.40;6.07;;;;;;;-3.01;100.00;97058.06;10334147;28;20194;-65
2023/01/29 17:14:23;;;;;;;13.77;7.97;;;;;;;-3.05;100.00;97053.06;10332942;28;20245;-63
2023/01/29 17:19:24;;;;;;;29.83;12.30;;;;;;;-2.95;100.00;97055.25;10333934;28;20564;-66
2023/01/29 17:24:25;;;;;;;9.97;6.90;;;;;;;-3.09;100.00;97051.50;10333726;28;20732;-66
2023/01/29 17:29:27;;;;;;;24.80;12.77;;;;;;;-2.94;100.00;97055.16;10333716;28;20279;-63
2023/01/29 17:34:28;;;;;;;9.37;5.73;;;;;;;-3.02;100.00;97051.25;10333471;28;20818;-65
2023/01/29 17:39:28;;;;;;;24.30;9.47;;;;;;;-2.89;100.00;97050.66;10333372;28;20196;-65
2023/01/29 17:44:28;;;;;;;14.13;6.67;;;;;;;-2.98;100.00;97043.38;10332696;28;20237;-65
2023/01/29 17:49:31;;;;;;;9.87;4.97;;;;;;;-3.04;100.00;97051.31;10332930;28;20272;-63
2023/01/29 17:54:31;;;;;;;15.77;9.50;;;;;;;-2.98;100.00;97056.19;10332658;28;20221;-66
2023/01/29 17:59:32;;;;;;;11.13;6.03;;;;;;;-2.99;100.00;97046.81;10332339;28;20194;-65
2023/01/29 18:04:32;;;;;;;10.10;5.70;;;;;;;-3.10;100.00;97042.16;10332121;28;20600;-63
2023/01/29 18:09:33;;;;;;;6.93;4.63;;;;;;;-3.15;100.00;97041.53;10331911;28;20206;-65
2023/01/29 18:14:33;;;;;;;10.77;6.97;;;;;;;-3.13;100.00;97036.31;10331808;28;20303;-65
2023/01/29 18:19:33;;;;;;;19.43;10.47;;;;;;;-3.10;100.00;97037.03;10330989;28;20205;-65
2023/01/29 18:24:35;;;;;;;35.90;15.47;;;;;;;-3.28;100.00;97032.66;10331364;28;20229;-65
2023/01/29 18:29:35;;;;;;;13.77;7.10;;;;;;;-3.29;100.00;97013.91;10331567;28;20198;-64
2023/01/29 18:34:35;;;;;;;19.00;10.70;;;;;;;-3.34;100.00;97015.00;10330975;28;20714;-63
2023/01/29 18:39:36;;;;;;;11.07;6.50;;;;;;;-3.39;100.00;96999.81;10331002;28;20200;-61
2023/01/29 18:44:36;;;;;;;20.60;11.40;;;;;;;-3.52;100.00;96996.94;10352087;23;20332;-64
2023/01/29 18:49:38;;;;;;;13.70;7.73;;;;;;;-3.39;100.00;96992.13;10327830;28;20221;-63
2023/01/29 18:54:38;;;;;;;12.53;7.87;;;;;;;-3.52;100.00;96980.72;10330509;28;20307;-63
2023/01/29 18:59:38;;;;;;;11.47;6.83;;;;;;;-3.38;100.00;96983.56;10330283;28;20328;-64
2023/01/29 19:04:39;;;;;;;11.13;7.93;;;;;;;-3.56;100.00;96984.31;10330292;28;20249;-63
2023/01/29 19:09:39;;;;;;;10.97;7.43;;;;;;;-3.54;100.00;96962.84;10329914;28;20256;-63
2023/01/29 19:14:39;;;;;;;17.23;9.23;;;;;;;-3.59;100.00;96952.81;10330085;28;20214;-66
2023/01/29 19:19:40;;;;;;;12.83;7.90;;;;;;;-3.73;100.00;96936.38;10329564;28;20248;-61
2023/01/29 19:24:40;;;;;;;17.70;11.73;;;;;;;-3.78;100.00;96927.16;10329422;28;20248;-64
2023/01/29 19:29:41;;;;;;;14.67;8.60;;;;;;;-3.92;100.00;96924.31;10329836;28;20201;-64
2023/01/29 19:34:41;;;;;;;16.73;9.20;;;;;;;-3.82;100.00;96922.22;10329156;28;20584;-63
2023/01/29 19:39:41;;;;;;;16.27;8.70;;;;;;;-3.96;100.00;96913.34;10329325;28;20288;-64
2023/01/29 19:44:43;;;;;;;19.33;11.07;;;;;;;-4.11;100.00;96906.31;10328744;28;20289;-62
2023/01/29 19:49:43;;;;;;;23.10;11.77;;;;;;;-4.25;100.00;96901.75;10329483;28;20197;-66
2023/01/29 19:54:47;;;;;;;18.97;10.47;;;;;;;-4.29;100.00;96907.84;10329238;28;20210;-65
2023/01/29 19:59:48;;;;;;;17.43;10.10;;;;;;;-4.49;100.00;96893.31;10328813;28;20222;-65
2023/01/29 20:04:48;;;;;;;14.30;7.87;;;;;;;-4.55;100.00;96885.88;10329030;28;20313;-64
2023/01/29 20:09:48;;;;;;;15.73;8.87;;;;;;;-4.70;100.00;96888.13;10328651;28;20190;-65
2023/01/29 20:14:50;;;;;;;17.73;8.80;;;;;;;-4.72;100.00;96897.56;10328877;28;20217;-65
2023/01/29 20:19:51;;;;;;;13.90;7.77;;;;;;;-4.80;100.00;96885.97;10328517;28;20699;-66
2023/01/29 20:24:51;;;;;;;15.77;10.70;;;;;;;-4.88;100.00;96887.09;10328502;28;20308;-67
2023/01/29 20:29:51;;;;;;;15.30;9.40;;;;;;;-4.80;100.00;96880.88;10328848;28;20212;-66
2023/01/29 20:34:52;;;;;;;7.40;4.80;;;;;;;-4.92;100.00;96866.84;10328330;28;20301;-63
2023/01/29 20:39:52;;;;;;;13.07;8.17;;;;;;;-4.97;100.00;96863.63;10330653;28;20669;-65
2023/01/29 20:44:53;;;;;;;10.10;6.97;;;;;;;-4.94;100.00;96853.28;10335168;28;20237;-65
2023/01/29 20:49:53;;;;;;;18.00;10.03;;;;;;;-5.05;100.00;96851.16;10335530;28;20263;-66
2023/01/29 20:54:53;;;;;;;27.03;11.53;;;;;;;-5.08;100.00;96853.81;10334978;28;20236;-66
2023/01/29 20:59:54;;;;;;;22.37;12.53;;;;;;;-5.12;100.00;96854.81;10334998;28;20185;-66
2023/01/29 21:04:55;;;;;;;28.37;12.00;;;;;;;-5.09;100.00;96840.19;10334774;28;20408;-65
2023/01/29 21:09:55;;;;;;;17.40;10.00;;;;;;;-5.13;100.00;96833.56;10334528;28;20303;-66
2023/01/29 21:14:56;;;;;;;12.77;7.67;;;;;;;-5.10;100.00;96823.22;10334620;28;20213;-65
2023/01/29 21:19:56;;;;;;;13.87;8.07;;;;;;;-5.19;100.00;96813.34;10334322;28;20201;-65
2023/01/29 21:24:56;;;;;;;31.57;14.87;;;;;;;-5.26;100.00;96810.16;10334178;28;20304;-64
2023/01/29 21:29:57;;;;;;;13.83;8.37;;;;;;;-5.22;100.00;96796.41;10334010;28;20260;-65
2023/01/29 21:34:57;;;;;;;17.13;10.83;;;;;;;-5.38;100.00;96782.53;10334143;28;20213;-65
2023/01/29 21:39:58;;;;;;;12.33;7.47;;;;;;;-5.37;100.00;96758.69;10333255;28;20208;-65
2023/01/29 21:44:58;;;;;;;12.23;6.87;;;;;;;-5.35;100.00;96740.75;10333049;28;20237;-66
2023/01/29 21:49:58;;;;;;;15.70;9.43;;;;;;;-5.25;100.00;96747.19;10332644;28;20290;-66
2023/01/29 21:54:59;;;;;;;12.07;7.50;;;;;;;-5.21;100.00;96741.06;10332489;28;20209;-66
2023/01/29 21:59:59;;;;;;;12.67;7.60;;;;;;;-5.12;100.00;96717.72;10333111;28;20255;-66
2023/01/29 22:05:02;;;;;;;13.73;6.97;;;;;;;-5.11;100.00;96701.50;10332465;28;20320;-65
2023/01/29 22:10:03;;;;;;;17.30;9.03;;;;;;;-5.16;100.00;96683.00;10332617;28;20226;-65
2023/01/29 22:15:05;;;;;;;17.13;10.00;;;;;;;-5.14;100.00;96667.59;10332134;28;20713;-66
2023/01/29 22:20:09;;;;;;;14.70;8.50;;;;;;;-5.18;100.00;96651.56;10332093;28;20197;-66
2023/01/29 22:25:10;;;;;;;11.30;7.17;;;;;;;-5.13;100.00;96649.66;10330500;28;20245;-68
2023/01/29 22:30:11;;;;;;;10.97;5.87;;;;;;;-5.11;100.00;96635.09;10329818;28;20204;-68
2023/01/29 22:35:11;;;;;;;13.87;8.57;;;;;;;-5.08;100.00;96640.09;10329659;28;20344;-66
2023/01/29 22:40:12;;;;;;;14.50;9.07;;;;;;;-5.00;100.00;96613.41;10331183;28;20824;-65
2023/01/29 22:45:12;;;;;;;9.10;5.70;;;;;;;-4.98;100.00;96601.41;10330486;28;20311;-66
2023/01/29 22:50:13;;;;;;;8.97;5.40;;;;;;;-4.86;100.00;96606.00;10330854;28;20193;-65
2023/01/29 22:55:13;;;;;;;12.47;6.67;;;;;;;-4.84;100.00;96588.84;10330984;28;20206;-64
2023/01/29 23:00:14;;;;;;;10.80;6.80;;;;;;;-4.79;100.00;96584.41;10331051;28;20198;-65
2023/01/29 23:05:14;;;;;;;11.10;7.57;;;;;;;-4.85;100.00;96588.03;10329903;28;20239;-65
2023/01/29 23:10:15;;;;;;;14.03;8.70;;;;;;;-4.88;100.00;96577.13;10330785;28;20208;-67
2023/01/29 23:15:15;;;;;;;13.43;5.93;;;;;;;-4.86;100.00;96570.22;10329905;28;20249;-65